White Butte, South Dakota
Current Conditions -  °F | °C
As of 2:53 AM on Thursday 27 Nov 2014 (Local Time) from KHEI Reporting Station
Overcast Overcast  
Wind Chill:   Ceiling: 600
Heat Index: 11°   Visibility: 10mi
Dew Point:   Wind: 7mph
Humidity: 88%   Direction: 130°SE
Pressure: 30.27"   Gusts: NA
Location:  45.8079°N, 102.334°W
Report Text: KHEI 270953Z AUTO 13006KT 10SM OVC006 M12/M13 A3027 RMK AO2 SLP299 T11171133
Loading
Personal Weather Stations






























Interactive Weather Map New forecast layout! Learn more

10-Day Weather Forecast

Advertisements
Track Severe Weather on mobile